sensor_id;sensor_type;location;lat;lon;timestamp;P1;durP1;ratioP1;P2;durP2;ratioP2
42364;SDS011;28498;54.400;18.566;2023-04-24T00:01:08;27.67;;;18.38;;
42364;SDS011;28498;54.400;18.566;2023-04-24T00:03:35;25.65;;;17.02;;
42364;SDS011;28498;54.400;18.566;2023-04-24T00:06:03;26.88;;;17.27;;
42364;SDS011;28498;54.400;18.566;2023-04-24T00:08:31;29.75;;;19.42;;
42364;SDS011;28498;54.400;18.566;2023-04-24T00:10:58;33.35;;;20.00;;
42364;SDS011;28498;54.400;18.566;2023-04-24T00:13:25;32.92;;;21.15;;
42364;SDS011;28498;54.400;18.566;2023-04-24T00:15:55;33.78;;;21.25;;
42364;SDS011;28498;54.400;18.566;2023-04-24T00:18:22;37.70;;;23.48;;
42364;SDS011;28498;54.400;18.566;2023-04-24T00:20:49;35.50;;;23.05;;
42364;SDS011;28498;54.400;18.566;2023-04-24T00:23:16;36.17;;;22.70;;
42364;SDS011;28498;54.400;18.566;2023-04-24T00:25:43;37.47;;;23.52;;
42364;SDS011;28498;54.400;18.566;2023-04-24T00:28:10;39.40;;;22.50;;
42364;SDS011;28498;54.400;18.566;2023-04-24T00:30:37;40.63;;;25.35;;
42364;SDS011;28498;54.400;18.566;2023-04-24T00:33:04;43.50;;;25.00;;
42364;SDS011;28498;54.400;18.566;2023-04-24T00:35:31;40.97;;;24.85;;
42364;SDS011;28498;54.400;18.566;2023-04-24T00:37:57;42.88;;;25.08;;
42364;SDS011;28498;54.400;18.566;2023-04-24T00:40:24;43.90;;;24.85;;
42364;SDS011;28498;54.400;18.566;2023-04-24T00:42:54;41.65;;;24.85;;
42364;SDS011;28498;54.400;18.566;2023-04-24T00:45:21;42.08;;;24.90;;
42364;SDS011;28498;54.400;18.566;2023-04-24T00:47:48;41.10;;;25.65;;
42364;SDS011;28498;54.400;18.566;2023-04-24T00:50:18;41.25;;;24.67;;
42364;SDS011;28498;54.400;18.566;2023-04-24T00:52:47;40.17;;;24.58;;
42364;SDS011;28498;54.400;18.566;2023-04-24T00:55:15;40.38;;;24.38;;
42364;SDS011;28498;54.400;18.566;2023-04-24T00:57:42;42.15;;;25.05;;
42364;SDS011;28498;54.400;18.566;2023-04-24T01:00:10;42.72;;;25.50;;
42364;SDS011;28498;54.400;18.566;2023-04-24T01:02:41;43.35;;;25.65;;
42364;SDS011;28498;54.400;18.566;2023-04-24T01:05:13;40.65;;;24.23;;
42364;SDS011;28498;54.400;18.566;2023-04-24T01:07:41;35.40;;;21.58;;
42364;SDS011;28498;54.400;18.566;2023-04-24T01:10:12;32.95;;;20.38;;
42364;SDS011;28498;54.400;18.566;2023-04-24T01:12:40;35.40;;;19.35;;
42364;SDS011;28498;54.400;18.566;2023-04-24T01:15:07;32.45;;;19.33;;
42364;SDS011;28498;54.400;18.566;2023-04-24T01:17:35;34.53;;;18.90;;
42364;SDS011;28498;54.400;18.566;2023-04-24T01:20:02;31.75;;;19.13;;
42364;SDS011;28498;54.400;18.566;2023-04-24T01:22:34;33.53;;;19.92;;
42364;SDS011;28498;54.400;18.566;2023-04-24T01:25:02;33.30;;;18.92;;
42364;SDS011;28498;54.400;18.566;2023-04-24T01:27:30;36.75;;;19.73;;
42364;SDS011;28498;54.400;18.566;2023-04-24T01:29:57;37.58;;;21.13;;
42364;SDS011;28498;54.400;18.566;2023-04-24T01:32:24;39.22;;;20.73;;
42364;SDS011;28498;54.400;18.566;2023-04-24T01:34:53;36.42;;;19.38;;
42364;SDS011;28498;54.400;18.566;2023-04-24T01:37:21;35.92;;;20.98;;
42364;SDS011;28498;54.400;18.566;2023-04-24T01:39:48;40.88;;;21.30;;
42364;SDS011;28498;54.400;18.566;2023-04-24T01:42:15;39.67;;;22.10;;
42364;SDS011;28498;54.400;18.566;2023-04-24T01:44:43;35.15;;;20.00;;
42364;SDS011;28498;54.400;18.566;2023-04-24T01:47:10;36.60;;;20.48;;
42364;SDS011;28498;54.400;18.566;2023-04-24T01:49:38;36.35;;;20.08;;
42364;SDS011;28498;54.400;18.566;2023-04-24T01:52:05;43.25;;;22.50;;
42364;SDS011;28498;54.400;18.566;2023-04-24T01:54:32;39.28;;;22.20;;
42364;SDS011;28498;54.400;18.566;2023-04-24T01:56:59;41.00;;;20.58;;
42364;SDS011;28498;54.400;18.566;2023-04-24T01:59:28;38.70;;;20.75;;
42364;SDS011;28498;54.400;18.566;2023-04-24T02:01:56;42.28;;;21.15;;
42364;SDS011;28498;54.400;18.566;2023-04-24T02:04:23;37.92;;;21.70;;
42364;SDS011;28498;54.400;18.566;2023-04-24T02:06:50;38.65;;;20.30;;
42364;SDS011;28498;54.400;18.566;2023-04-24T02:09:17;37.35;;;20.90;;
42364;SDS011;28498;54.400;18.566;2023-04-24T02:11:44;36.13;;;19.02;;
42364;SDS011;28498;54.400;18.566;2023-04-24T02:14:11;38.42;;;19.23;;
42364;SDS011;28498;54.400;18.566;2023-04-24T02:16:38;37.70;;;20.25;;
42364;SDS011;28498;54.400;18.566;2023-04-24T02:19:05;37.20;;;19.00;;
42364;SDS011;28498;54.400;18.566;2023-04-24T02:21:32;35.20;;;18.23;;
42364;SDS011;28498;54.400;18.566;2023-04-24T02:23:59;38.28;;;18.95;;
42364;SDS011;28498;54.400;18.566;2023-04-24T02:26:26;37.05;;;19.05;;
42364;SDS011;28498;54.400;18.566;2023-04-24T02:28:53;41.10;;;18.75;;
42364;SDS011;28498;54.400;18.566;2023-04-24T02:31:20;44.95;;;21.40;;
42364;SDS011;28498;54.400;18.566;2023-04-24T02:33:47;42.70;;;20.52;;
42364;SDS011;28498;54.400;18.566;2023-04-24T02:36:14;47.78;;;22.80;;
42364;SDS011;28498;54.400;18.566;2023-04-24T02:38:41;47.13;;;22.60;;
42364;SDS011;28498;54.400;18.566;2023-04-24T02:41:08;48.10;;;22.20;;
42364;SDS011;28498;54.400;18.566;2023-04-24T02:43:36;47.13;;;22.20;;
42364;SDS011;28498;54.400;18.566;2023-04-24T02:46:02;53.88;;;24.83;;
42364;SDS011;28498;54.400;18.566;2023-04-24T02:48:29;50.78;;;22.67;;
42364;SDS011;28498;54.400;18.566;2023-04-24T02:50:56;50.78;;;23.02;;
42364;SDS011;28498;54.400;18.566;2023-04-24T02:53:24;46.25;;;24.02;;
42364;SDS011;28498;54.400;18.566;2023-04-24T02:55:51;55.80;;;26.10;;
42364;SDS011;28498;54.400;18.566;2023-04-24T02:58:18;51.05;;;24.60;;
42364;SDS011;28498;54.400;18.566;2023-04-24T03:00:46;54.13;;;24.90;;
42364;SDS011;28498;54.400;18.566;2023-04-24T03:03:14;49.70;;;22.77;;
42364;SDS011;28498;54.400;18.566;2023-04-24T03:05:41;53.95;;;23.02;;
42364;SDS011;28498;54.400;18.566;2023-04-24T03:08:08;51.80;;;23.95;;
42364;SDS011;28498;54.400;18.566;2023-04-24T03:10:36;47.05;;;22.42;;
42364;SDS011;28498;54.400;18.566;2023-04-24T03:13:03;43.67;;;21.77;;
42364;SDS011;28498;54.400;18.566;2023-04-24T03:15:30;44.20;;;21.83;;
42364;SDS011;28498;54.400;18.566;2023-04-24T03:17:57;58.15;;;23.73;;
42364;SDS011;28498;54.400;18.566;2023-04-24T03:20:24;62.58;;;24.45;;
42364;SDS011;28498;54.400;18.566;2023-04-24T03:22:52;52.83;;;23.52;;
42364;SDS011;28498;54.400;18.566;2023-04-24T03:25:19;54.72;;;23.23;;
42364;SDS011;28498;54.400;18.566;2023-04-24T03:27:46;49.53;;;22.88;;
42364;SDS011;28498;54.400;18.566;2023-04-24T03:30:12;48.97;;;20.38;;
42364;SDS011;28498;54.400;18.566;2023-04-24T03:32:39;51.17;;;22.17;;
42364;SDS011;28498;54.400;18.566;2023-04-24T03:35:07;52.28;;;22.88;;
42364;SDS011;28498;54.400;18.566;2023-04-24T03:37:34;54.63;;;22.92;;
42364;SDS011;28498;54.400;18.566;2023-04-24T03:40:01;46.58;;;20.25;;
42364;SDS011;28498;54.400;18.566;2023-04-24T03:42:29;46.95;;;20.75;;
42364;SDS011;28498;54.400;18.566;2023-04-24T03:44:55;48.00;;;21.67;;
42364;SDS011;28498;54.400;18.566;2023-04-24T03:47:22;39.47;;;19.67;;
42364;SDS011;28498;54.400;18.566;2023-04-24T03:49:50;38.35;;;19.88;;
42364;SDS011;28498;54.400;18.566;2023-04-24T03:52:17;36.40;;;18.52;;
42364;SDS011;28498;54.400;18.566;2023-04-24T03:54:44;37.20;;;19.00;;
42364;SDS011;28498;54.400;18.566;2023-04-24T03:57:11;39.30;;;19.77;;
42364;SDS011;28498;54.400;18.566;2023-04-24T03:59:38;37.45;;;18.33;;
42364;SDS011;28498;54.400;18.566;2023-04-24T04:02:05;43.45;;;20.23;;
42364;SDS011;28498;54.400;18.566;2023-04-24T04:04:32;39.30;;;18.88;;
42364;SDS011;28498;54.400;18.566;2023-04-24T04:06:59;37.47;;;19.13;;
42364;SDS011;28498;54.400;18.566;2023-04-24T04:09:29;37.85;;;19.15;;
42364;SDS011;28498;54.400;18.566;2023-04-24T04:11:56;39.92;;;18.90;;
42364;SDS011;28498;54.400;18.566;2023-04-24T04:14:23;33.67;;;17.63;;
42364;SDS011;28498;54.400;18.566;2023-04-24T04:16:50;39.53;;;18.95;;
42364;SDS011;28498;54.400;18.566;2023-04-24T04:19:20;37.00;;;18.90;;
42364;SDS011;28498;54.400;18.566;2023-04-24T04:21:47;39.00;;;18.42;;
42364;SDS011;28498;54.400;18.566;2023-04-24T04:24:19;37.65;;;18.33;;
42364;SDS011;28498;54.400;18.566;2023-04-24T04:26:50;38.28;;;19.58;;
42364;SDS011;28498;54.400;18.566;2023-04-24T04:29:18;37.78;;;18.55;;
42364;SDS011;28498;54.400;18.566;2023-04-24T04:31:45;33.38;;;17.70;;
42364;SDS011;28498;54.400;18.566;2023-04-24T04:34:12;31.77;;;17.75;;
42364;SDS011;28498;54.400;18.566;2023-04-24T04:36:40;37.60;;;18.20;;
42364;SDS011;28498;54.400;18.566;2023-04-24T04:39:08;36.65;;;17.60;;
42364;SDS011;28498;54.400;18.566;2023-04-24T04:41:35;31.08;;;16.98;;
42364;SDS011;28498;54.400;18.566;2023-04-24T04:44:02;27.95;;;16.73;;
42364;SDS011;28498;54.400;18.566;2023-04-24T04:46:31;35.53;;;16.65;;
42364;SDS011;28498;54.400;18.566;2023-04-24T04:49:02;28.33;;;15.73;;
42364;SDS011;28498;54.400;18.566;2023-04-24T04:51:29;31.73;;;16.50;;
42364;SDS011;28498;54.400;18.566;2023-04-24T04:53:57;30.38;;;16.98;;
42364;SDS011;28498;54.400;18.566;2023-04-24T04:56:24;29.08;;;16.33;;
42364;SDS011;28498;54.400;18.566;2023-04-24T04:58:51;27.23;;;15.85;;
42364;SDS011;28498;54.400;18.566;2023-04-24T05:01:18;31.40;;;17.95;;
42364;SDS011;28498;54.400;18.566;2023-04-24T05:03:45;28.83;;;16.30;;
42364;SDS011;28498;54.400;18.566;2023-04-24T05:06:12;30.17;;;17.05;;
42364;SDS011;28498;54.400;18.566;2023-04-24T05:08:39;27.70;;;17.30;;
42364;SDS011;28498;54.400;18.566;2023-04-24T05:11:07;36.72;;;17.98;;
42364;SDS011;28498;54.400;18.566;2023-04-24T05:13:34;27.67;;;16.23;;
42364;SDS011;28498;54.400;18.566;2023-04-24T05:16:06;31.92;;;16.13;;
42364;SDS011;28498;54.400;18.566;2023-04-24T05:18:33;31.33;;;16.23;;
42364;SDS011;28498;54.400;18.566;2023-04-24T05:21:00;30.13;;;16.42;;
42364;SDS011;28498;54.400;18.566;2023-04-24T05:23:27;28.13;;;16.23;;
42364;SDS011;28498;54.400;18.566;2023-04-24T05:25:54;29.88;;;16.42;;
42364;SDS011;28498;54.400;18.566;2023-04-24T05:28:21;28.27;;;16.23;;
42364;SDS011;28498;54.400;18.566;2023-04-24T05:30:48;27.20;;;15.68;;
42364;SDS011;28498;54.400;18.566;2023-04-24T05:33:16;28.77;;;15.93;;
42364;SDS011;28498;54.400;18.566;2023-04-24T05:35:43;28.30;;;16.17;;
42364;SDS011;28498;54.400;18.566;2023-04-24T05:38:13;34.47;;;16.98;;
42364;SDS011;28498;54.400;18.566;2023-04-24T05:40:44;31.63;;;16.20;;
42364;SDS011;28498;54.400;18.566;2023-04-24T05:43:11;33.65;;;17.05;;
42364;SDS011;28498;54.400;18.566;2023-04-24T05:45:38;33.53;;;17.42;;
42364;SDS011;28498;54.400;18.566;2023-04-24T05:48:05;31.83;;;16.83;;
42364;SDS011;28498;54.400;18.566;2023-04-24T05:50:32;32.25;;;17.52;;
42364;SDS011;28498;54.400;18.566;2023-04-24T05:53:02;32.05;;;15.98;;
42364;SDS011;28498;54.400;18.566;2023-04-24T05:55:30;31.83;;;17.23;;
42364;SDS011;28498;54.400;18.566;2023-04-24T05:57:57;30.08;;;17.13;;
42364;SDS011;28498;54.400;18.566;2023-04-24T06:00:25;29.67;;;14.40;;
42364;SDS011;28498;54.400;18.566;2023-04-24T06:02:53;27.30;;;15.27;;
42364;SDS011;28498;54.400;18.566;2023-04-24T06:05:21;30.75;;;15.07;;
42364;SDS011;28498;54.400;18.566;2023-04-24T06:07:48;25.55;;;13.95;;
42364;SDS011;28498;54.400;18.566;2023-04-24T06:10:16;25.33;;;13.27;;
42364;SDS011;28498;54.400;18.566;2023-04-24T06:12:43;21.08;;;12.10;;
42364;SDS011;28498;54.400;18.566;2023-04-24T06:15:10;20.77;;;11.35;;
42364;SDS011;28498;54.400;18.566;2023-04-24T06:17:38;22.25;;;11.32;;
42364;SDS011;28498;54.400;18.566;2023-04-24T06:20:05;21.85;;;11.70;;
42364;SDS011;28498;54.400;18.566;2023-04-24T06:22:33;20.20;;;11.65;;
42364;SDS011;28498;54.400;18.566;2023-04-24T06:25:00;24.75;;;12.85;;
42364;SDS011;28498;54.400;18.566;2023-04-24T06:27:27;19.80;;;11.80;;
42364;SDS011;28498;54.400;18.566;2023-04-24T06:29:54;22.30;;;11.80;;
42364;SDS011;28498;54.400;18.566;2023-04-24T06:32:24;22.73;;;11.20;;
42364;SDS011;28498;54.400;18.566;2023-04-24T06:34:52;21.17;;;10.65;;
42364;SDS011;28498;54.400;18.566;2023-04-24T06:37:22;23.77;;;11.90;;
42364;SDS011;28498;54.400;18.566;2023-04-24T06:39:49;22.58;;;10.90;;
42364;SDS011;28498;54.400;18.566;2023-04-24T06:42:16;22.05;;;11.70;;
42364;SDS011;28498;54.400;18.566;2023-04-24T06:44:43;21.27;;;12.05;;
42364;SDS011;28498;54.400;18.566;2023-04-24T06:47:11;20.73;;;10.70;;
42364;SDS011;28498;54.400;18.566;2023-04-24T06:49:39;21.50;;;10.15;;
42364;SDS011;28498;54.400;18.566;2023-04-24T06:52:07;24.13;;;12.35;;
42364;SDS011;28498;54.400;18.566;2023-04-24T06:54:34;23.88;;;11.25;;
42364;SDS011;28498;54.400;18.566;2023-04-24T06:57:01;25.48;;;11.35;;
42364;SDS011;28498;54.400;18.566;2023-04-24T06:59:29;22.23;;;11.35;;
42364;SDS011;28498;54.400;18.566;2023-04-24T07:01:56;23.48;;;11.95;;
42364;SDS011;28498;54.400;18.566;2023-04-24T07:04:23;22.20;;;10.82;;
42364;SDS011;28498;54.400;18.566;2023-04-24T07:06:52;14.77;;;7.95;;
42364;SDS011;28498;54.400;18.566;2023-04-24T07:09:22;15.13;;;7.53;;
42364;SDS011;28498;54.400;18.566;2023-04-24T07:11:52;15.80;;;7.43;;
42364;SDS011;28498;54.400;18.566;2023-04-24T07:14:19;14.93;;;7.60;;
42364;SDS011;28498;54.400;18.566;2023-04-24T07:16:46;15.93;;;7.43;;
42364;SDS011;28498;54.400;18.566;2023-04-24T07:19:13;14.30;;;7.93;;
42364;SDS011;28498;54.400;18.566;2023-04-24T07:21:41;13.63;;;8.68;;
42364;SDS011;28498;54.400;18.566;2023-04-24T07:24:08;13.23;;;8.05;;
42364;SDS011;28498;54.400;18.566;2023-04-24T07:26:37;17.52;;;8.50;;
42364;SDS011;28498;54.400;18.566;2023-04-24T07:29:04;15.90;;;9.02;;
42364;SDS011;28498;54.400;18.566;2023-04-24T07:31:31;16.88;;;7.88;;
42364;SDS011;28498;54.400;18.566;2023-04-24T07:33:58;18.20;;;8.93;;
42364;SDS011;28498;54.400;18.566;2023-04-24T07:36:26;13.73;;;8.18;;
42364;SDS011;28498;54.400;18.566;2023-04-24T07:38:54;18.20;;;9.20;;
42364;SDS011;28498;54.400;18.566;2023-04-24T07:41:22;16.80;;;9.23;;
42364;SDS011;28498;54.400;18.566;2023-04-24T07:43:50;19.15;;;9.15;;
42364;SDS011;28498;54.400;18.566;2023-04-24T07:46:20;19.13;;;10.25;;
42364;SDS011;28498;54.400;18.566;2023-04-24T07:48:47;17.63;;;11.23;;
42364;SDS011;28498;54.400;18.566;2023-04-24T07:51:30;23.50;;;11.43;;
42364;SDS011;28498;54.400;18.566;2023-04-24T07:53:59;18.35;;;11.43;;
42364;SDS011;28498;54.400;18.566;2023-04-24T07:56:26;20.20;;;12.13;;
42364;SDS011;28498;54.400;18.566;2023-04-24T07:58:53;23.85;;;11.88;;
42364;SDS011;28498;54.400;18.566;2023-04-24T08:01:20;23.10;;;13.18;;
42364;SDS011;28498;54.400;18.566;2023-04-24T08:03:47;20.60;;;11.27;;
42364;SDS011;28498;54.400;18.566;2023-04-24T08:06:14;20.00;;;11.18;;
42364;SDS011;28498;54.400;18.566;2023-04-24T08:08:41;19.08;;;11.75;;
42364;SDS011;28498;54.400;18.566;2023-04-24T08:11:08;21.25;;;11.93;;
42364;SDS011;28498;54.400;18.566;2023-04-24T08:13:35;23.52;;;12.05;;
42364;SDS011;28498;54.400;18.566;2023-04-24T08:16:02;23.13;;;12.48;;
42364;SDS011;28498;54.400;18.566;2023-04-24T08:18:29;22.67;;;12.38;;
42364;SDS011;28498;54.400;18.566;2023-04-24T08:20:57;21.20;;;11.73;;
42364;SDS011;28498;54.400;18.566;2023-04-24T08:23:27;17.17;;;11.85;;
42364;SDS011;28498;54.400;18.566;2023-04-24T08:25:56;19.33;;;12.70;;
42364;SDS011;28498;54.400;18.566;2023-04-24T08:28:24;20.50;;;12.52;;
42364;SDS011;28498;54.400;18.566;2023-04-24T08:30:52;21.63;;;13.32;;
42364;SDS011;28498;54.400;18.566;2023-04-24T08:33:24;19.48;;;13.05;;
42364;SDS011;28498;54.400;18.566;2023-04-24T08:35:51;19.90;;;12.88;;
42364;SDS011;28498;54.400;18.566;2023-04-24T08:38:19;17.50;;;12.55;;
42364;SDS011;28498;54.400;18.566;2023-04-24T08:40:46;23.23;;;13.02;;
42364;SDS011;28498;54.400;18.566;2023-04-24T08:43:15;20.65;;;13.57;;
42364;SDS011;28498;54.400;18.566;2023-04-24T08:45:43;18.65;;;13.65;;
42364;SDS011;28498;54.400;18.566;2023-04-24T08:48:10;18.10;;;12.80;;
42364;SDS011;28498;54.400;18.566;2023-04-24T08:50:53;21.33;;;14.60;;
42364;SDS011;28498;54.400;18.566;2023-04-24T08:53:20;20.73;;;13.52;;
42364;SDS011;28498;54.400;18.566;2023-04-24T08:55:47;22.30;;;13.63;;
42364;SDS011;28498;54.400;18.566;2023-04-24T08:58:16;24.13;;;14.70;;
42364;SDS011;28498;54.400;18.566;2023-04-24T09:00:44;23.10;;;14.07;;
42364;SDS011;28498;54.400;18.566;2023-04-24T09:03:16;20.48;;;14.23;;
42364;SDS011;28498;54.400;18.566;2023-04-24T09:05:44;20.15;;;14.25;;
42364;SDS011;28498;54.400;18.566;2023-04-24T09:08:14;22.50;;;14.98;;
42364;SDS011;28498;54.400;18.566;2023-04-24T09:10:42;22.33;;;14.30;;
42364;SDS011;28498;54.400;18.566;2023-04-24T09:13:09;24.25;;;14.40;;
42364;SDS011;28498;54.400;18.566;2023-04-24T09:15:38;23.95;;;15.43;;
42364;SDS011;28498;54.400;18.566;2023-04-24T09:18:07;26.00;;;15.80;;
42364;SDS011;28498;54.400;18.566;2023-04-24T09:20:34;26.33;;;16.38;;
42364;SDS011;28498;54.400;18.566;2023-04-24T09:23:21;25.27;;;16.58;;
42364;SDS011;28498;54.400;18.566;2023-04-24T09:25:48;25.38;;;16.67;;
42364;SDS011;28498;54.400;18.566;2023-04-24T09:28:25;24.77;;;17.05;;
42364;SDS011;28498;54.400;18.566;2023-04-24T09:31:03;25.48;;;16.48;;
42364;SDS011;28498;54.400;18.566;2023-04-24T09:36:28;24.98;;;16.88;;
42364;SDS011;28498;54.400;18.566;2023-04-24T09:39:06;28.60;;;18.10;;
42364;SDS011;28498;54.400;18.566;2023-04-24T09:41:44;26.20;;;16.55;;
42364;SDS011;28498;54.400;18.566;2023-04-24T09:44:19;21.75;;;12.38;;
42364;SDS011;28498;54.400;18.566;2023-04-24T09:46:51;20.58;;;11.38;;
42364;SDS011;28498;54.400;18.566;2023-04-24T09:49:28;20.35;;;12.63;;
42364;SDS011;28498;54.400;18.566;2023-04-24T09:52:04;16.85;;;11.85;;
42364;SDS011;28498;54.400;18.566;2023-04-24T09:54:32;15.50;;;10.90;;
42364;SDS011;28498;54.400;18.566;2023-04-24T09:56:59;17.42;;;11.05;;
42364;SDS011;28498;54.400;18.566;2023-04-24T09:59:27;16.45;;;11.00;;
42364;SDS011;28498;54.400;18.566;2023-04-24T10:01:54;17.05;;;10.45;;
42364;SDS011;28498;54.400;18.566;2023-04-24T10:04:23;19.17;;;11.63;;
42364;SDS011;28498;54.400;18.566;2023-04-24T10:06:53;23.02;;;15.18;;
42364;SDS011;28498;54.400;18.566;2023-04-24T10:09:23;22.63;;;13.02;;
42364;SDS011;28498;54.400;18.566;2023-04-24T10:11:51;17.30;;;11.70;;
42364;SDS011;28498;54.400;18.566;2023-04-24T10:14:21;21.13;;;11.60;;
42364;SDS011;28498;54.400;18.566;2023-04-24T10:16:50;18.85;;;11.93;;
42364;SDS011;28498;54.400;18.566;2023-04-24T10:19:25;19.95;;;12.50;;
42364;SDS011;28498;54.400;18.566;2023-04-24T10:21:52;18.27;;;12.75;;
42364;SDS011;28498;54.400;18.566;2023-04-24T10:24:22;21.52;;;14.30;;
42364;SDS011;28498;54.400;18.566;2023-04-24T10:26:49;23.02;;;14.55;;
42364;SDS011;28498;54.400;18.566;2023-04-24T10:29:19;19.38;;;13.40;;
42364;SDS011;28498;54.400;18.566;2023-04-24T10:31:47;17.70;;;12.85;;
42364;SDS011;28498;54.400;18.566;2023-04-24T10:34:15;17.55;;;12.52;;
42364;SDS011;28498;54.400;18.566;2023-04-24T10:36:48;19.23;;;12.98;;
42364;SDS011;28498;54.400;18.566;2023-04-24T10:39:23;18.55;;;12.90;;
42364;SDS011;28498;54.400;18.566;2023-04-24T10:41:53;19.52;;;13.25;;
42364;SDS011;28498;54.400;18.566;2023-04-24T10:44:25;21.55;;;13.32;;
42364;SDS011;28498;54.400;18.566;2023-04-24T10:47:01;17.63;;;12.48;;
42364;SDS011;28498;54.400;18.566;2023-04-24T10:49:29;18.27;;;13.18;;
42364;SDS011;28498;54.400;18.566;2023-04-24T10:52:01;16.77;;;12.43;;
42364;SDS011;28498;54.400;18.566;2023-04-24T10:54:35;15.82;;;11.90;;
42364;SDS011;28498;54.400;18.566;2023-04-24T10:59:50;20.23;;;13.55;;
42364;SDS011;28498;54.400;18.566;2023-04-24T11:02:36;19.95;;;12.93;;
42364;SDS011;28498;54.400;18.566;2023-04-24T11:05:05;17.52;;;12.48;;
42364;SDS011;28498;54.400;18.566;2023-04-24T11:10:46;15.70;;;11.48;;
42364;SDS011;28498;54.400;18.566;2023-04-24T11:13:21;16.20;;;11.75;;
42364;SDS011;28498;54.400;18.566;2023-04-24T11:18:42;16.08;;;11.75;;
42364;SDS011;28498;54.400;18.566;2023-04-24T11:21:17;15.10;;;10.27;;
42364;SDS011;28498;54.400;18.566;2023-04-24T11:23:45;17.30;;;11.90;;
42364;SDS011;28498;54.400;18.566;2023-04-24T11:26:16;14.75;;;11.95;;
42364;SDS011;28498;54.400;18.566;2023-04-24T11:28:48;13.32;;;10.18;;
42364;SDS011;28498;54.400;18.566;2023-04-24T11:31:34;16.48;;;11.40;;
42364;SDS011;28498;54.400;18.566;2023-04-24T11:34:06;15.45;;;9.70;;
42364;SDS011;28498;54.400;18.566;2023-04-24T11:36:34;18.83;;;10.43;;
42364;SDS011;28498;54.400;18.566;2023-04-24T11:39:02;13.80;;;10.38;;
42364;SDS011;28498;54.400;18.566;2023-04-24T11:41:29;15.00;;;10.70;;
42364;SDS011;28498;54.400;18.566;2023-04-24T11:43:57;16.52;;;10.35;;
42364;SDS011;28498;54.400;18.566;2023-04-24T11:46:27;14.88;;;10.40;;
42364;SDS011;28498;54.400;18.566;2023-04-24T11:48:56;17.48;;;10.27;;
42364;SDS011;28498;54.400;18.566;2023-04-24T11:51:23;15.40;;;10.60;;
42364;SDS011;28498;54.400;18.566;2023-04-24T11:53:58;16.90;;;11.70;;
42364;SDS011;28498;54.400;18.566;2023-04-24T11:56:29;15.23;;;9.80;;
42364;SDS011;28498;54.400;18.566;2023-04-24T11:58:56;16.75;;;9.88;;
42364;SDS011;28498;54.400;18.566;2023-04-24T12:01:23;13.85;;;9.95;;
42364;SDS011;28498;54.400;18.566;2023-04-24T12:03:50;14.65;;;10.13;;
42364;SDS011;28498;54.400;18.566;2023-04-24T12:06:27;9.55;;;6.35;;
42364;SDS011;28498;54.400;18.566;2023-04-24T12:08:54;9.15;;;5.50;;
42364;SDS011;28498;54.400;18.566;2023-04-24T12:11:36;8.02;;;5.07;;
42364;SDS011;28498;54.400;18.566;2023-04-24T12:14:20;16.67;;;6.72;;
42364;SDS011;28498;54.400;18.566;2023-04-24T12:16:48;7.78;;;4.43;;
42364;SDS011;28498;54.400;18.566;2023-04-24T12:19:23;8.95;;;4.65;;
42364;SDS011;28498;54.400;18.566;2023-04-24T12:22:03;7.65;;;4.65;;
42364;SDS011;28498;54.400;18.566;2023-04-24T12:24:32;10.43;;;5.65;;
42364;SDS011;28498;54.400;18.566;2023-04-24T12:26:59;8.10;;;5.15;;
42364;SDS011;28498;54.400;18.566;2023-04-24T12:29:27;7.65;;;4.88;;
42364;SDS011;28498;54.400;18.566;2023-04-24T12:31:55;8.27;;;4.30;;
42364;SDS011;28498;54.400;18.566;2023-04-24T12:34:22;6.22;;;4.53;;
42364;SDS011;28498;54.400;18.566;2023-04-24T12:36:51;8.88;;;5.28;;
42364;SDS011;28498;54.400;18.566;2023-04-24T12:39:18;10.23;;;4.82;;
42364;SDS011;28498;54.400;18.566;2023-04-24T12:41:56;11.25;;;4.85;;
42364;SDS011;28498;54.400;18.566;2023-04-24T12:44:33;6.35;;;4.35;;
42364;SDS011;28498;54.400;18.566;2023-04-24T12:47:01;5.55;;;3.88;;
42364;SDS011;28498;54.400;18.566;2023-04-24T12:49:29;6.88;;;4.40;;
42364;SDS011;28498;54.400;18.566;2023-04-24T12:51:56;7.43;;;3.95;;
42364;SDS011;28498;54.400;18.566;2023-04-24T12:54:23;5.60;;;3.70;;
42364;SDS011;28498;54.400;18.566;2023-04-24T12:56:50;8.15;;;4.45;;
42364;SDS011;28498;54.400;18.566;2023-04-24T12:59:17;7.63;;;3.80;;
42364;SDS011;28498;54.400;18.566;2023-04-24T13:01:44;5.40;;;3.78;;
42364;SDS011;28498;54.400;18.566;2023-04-24T13:04:11;6.80;;;3.65;;
42364;SDS011;28498;54.400;18.566;2023-04-24T13:06:38;6.80;;;4.07;;
42364;SDS011;28498;54.400;18.566;2023-04-24T13:09:05;5.63;;;3.28;;
42364;SDS011;28498;54.400;18.566;2023-04-24T13:11:32;9.10;;;4.07;;
42364;SDS011;28498;54.400;18.566;2023-04-24T13:13:59;8.70;;;4.00;;
42364;SDS011;28498;54.400;18.566;2023-04-24T13:16:26;7.15;;;4.07;;
42364;SDS011;28498;54.400;18.566;2023-04-24T13:18:53;5.63;;;3.72;;
42364;SDS011;28498;54.400;18.566;2023-04-24T13:21:20;6.60;;;3.85;;
42364;SDS011;28498;54.400;18.566;2023-04-24T13:23:47;6.68;;;3.72;;
42364;SDS011;28498;54.400;18.566;2023-04-24T13:26:14;7.60;;;3.80;;
42364;SDS011;28498;54.400;18.566;2023-04-24T13:28:41;15.27;;;4.18;;
42364;SDS011;28498;54.400;18.566;2023-04-24T13:31:08;7.60;;;3.55;;
42364;SDS011;28498;54.400;18.566;2023-04-24T13:33:36;8.45;;;3.50;;
42364;SDS011;28498;54.400;18.566;2023-04-24T13:36:02;7.60;;;3.90;;
42364;SDS011;28498;54.400;18.566;2023-04-24T13:38:30;6.78;;;3.60;;
42364;SDS011;28498;54.400;18.566;2023-04-24T13:40:56;7.43;;;3.63;;
42364;SDS011;28498;54.400;18.566;2023-04-24T13:43:23;8.82;;;3.80;;
42364;SDS011;28498;54.400;18.566;2023-04-24T13:45:50;7.60;;;4.32;;
42364;SDS011;28498;54.400;18.566;2023-04-24T13:48:18;9.43;;;3.53;;
42364;SDS011;28498;54.400;18.566;2023-04-24T13:50:45;9.00;;;3.40;;
42364;SDS011;28498;54.400;18.566;2023-04-24T13:53:14;6.30;;;3.38;;
42364;SDS011;28498;54.400;18.566;2023-04-24T13:55:41;5.03;;;3.28;;
42364;SDS011;28498;54.400;18.566;2023-04-24T13:58:08;5.10;;;3.60;;
42364;SDS011;28498;54.400;18.566;2023-04-24T14:00:35;8.18;;;3.13;;
42364;SDS011;28498;54.400;18.566;2023-04-24T14:03:02;6.55;;;3.28;;
42364;SDS011;28498;54.400;18.566;2023-04-24T14:05:30;6.53;;;3.58;;
42364;SDS011;28498;54.400;18.566;2023-04-24T14:07:57;5.85;;;3.22;;
42364;SDS011;28498;54.400;18.566;2023-04-24T14:10:24;5.93;;;3.90;;
42364;SDS011;28498;54.400;18.566;2023-04-24T14:12:51;6.72;;;3.63;;
42364;SDS011;28498;54.400;18.566;2023-04-24T14:15:19;7.35;;;3.25;;
42364;SDS011;28498;54.400;18.566;2023-04-24T14:17:47;6.13;;;3.15;;
42364;SDS011;28498;54.400;18.566;2023-04-24T14:20:14;5.07;;;3.17;;
42364;SDS011;28498;54.400;18.566;2023-04-24T14:22:41;10.25;;;3.53;;
42364;SDS011;28498;54.400;18.566;2023-04-24T14:25:08;7.22;;;3.60;;
42364;SDS011;28498;54.400;18.566;2023-04-24T14:27:35;7.07;;;3.60;;
42364;SDS011;28498;54.400;18.566;2023-04-24T14:30:02;5.38;;;3.20;;
42364;SDS011;28498;54.400;18.566;2023-04-24T14:32:30;5.22;;;3.10;;